Time;durP1;ratioP1;P1;durP2;ratioP2;P2;SDS_P1;SDS_P2;PMS_P1;PMS_P2;Temp;Humidity;BMP_temperature;BMP_pressure;BME280_temperature;BME280_humidity;BME280_pressure;Samples;Min_cycle;Max_cycle;Signal;HPM_P1;HPM_P2
2022/09/01 00:01:47;;;;;;;3.38;2.70;;;23.50;93.60;;;;;;5035345;28;20079;-23
2022/09/01 00:04:16;;;;;;;2.75;2.50;;;23.50;93.60;;;;;;5035406;28;20036;-24
2022/09/01 00:06:42;;;;;;;5.03;2.80;;;23.50;93.60;;;;;;5035250;28;20047;-23
2022/09/01 00:09:12;;;;;;;3.40;2.35;;;23.50;93.60;;;;;;5035213;28;20087;-24
2022/09/01 00:11:39;;;;;;;3.90;2.55;;;23.50;93.60;;;;;;5035231;28;20032;-24
2022/09/01 00:14:06;;;;;;;3.28;2.85;;;23.50;93.60;;;;;;5034788;28;20036;-24
2022/09/01 00:16:33;;;;;;;2.65;2.40;;;23.50;93.50;;;;;;5034922;28;20029;-24
2022/09/01 00:18:59;;;;;;;4.03;2.60;;;23.50;93.50;;;;;;5017215;28;20036;-24
2022/09/01 00:21:29;;;;;;;2.70;2.50;;;23.50;93.50;;;;;;5017222;28;20026;-24
2022/09/01 00:23:54;;;;;;;3.70;2.60;;;23.50;93.50;;;;;;5034937;28;20052;-24
2022/09/01 00:26:20;;;;;;;4.68;2.58;;;23.50;93.50;;;;;;5040196;28;20026;-24
2022/09/01 00:28:46;;;;;;;3.28;2.50;;;23.50;93.50;;;;;;5038534;28;20025;-24
2022/09/01 00:31:13;;;;;;;2.88;2.60;;;23.40;93.40;;;;;;5035890;28;20036;-24
2022/09/01 00:33:39;;;;;;;3.70;3.15;;;23.50;93.40;;;;;;5034866;28;20103;-24
2022/09/01 00:36:06;;;;;;;2.63;2.40;;;23.50;93.40;;;;;;5035393;28;20502;-24
2022/09/01 00:38:33;;;;;;;5.50;2.65;;;23.40;93.40;;;;;;5035365;28;20048;-24
2022/09/01 00:41:00;;;;;;;5.50;2.70;;;23.40;93.40;;;;;;5035198;28;20036;-24
2022/09/01 00:43:47;;;;;;;3.55;2.50;;;23.40;93.40;;;;;;5034402;28;20017;-23
2022/09/01 00:46:23;;;;;;;2.88;2.53;;;23.40;93.30;;;;;;5034256;28;20628;-24
2022/09/01 00:48:59;;;;;;;3.03;2.72;;;23.40;93.30;;;;;;5034807;28;20225;-24
2022/09/01 00:51:26;;;;;;;4.93;2.65;;;23.40;93.40;;;;;;5034141;28;20022;-24
2022/09/01 00:53:54;;;;;;;3.10;2.80;;;23.40;93.30;;;;;;5034108;28;20033;-24
2022/09/01 00:56:22;;;;;;;3.58;2.60;;;23.40;93.30;;;;;;5034928;28;20028;-24
2022/09/01 00:58:50;;;;;;;3.03;2.60;;;23.40;93.30;;;;;;5034092;28;20036;-24
2022/09/01 01:01:16;;;;;;;3.38;2.70;;;23.40;93.30;;;;;;5033932;28;20017;-24
2022/09/01 01:03:45;;;;;;;3.22;2.80;;;23.40;93.30;;;;;;5034086;28;20059;-24
2022/09/01 01:06:15;;;;;;;3.22;2.38;;;23.40;93.30;;;;;;5034725;28;20487;-24
2022/09/01 01:08:50;;;;;;;3.95;2.83;;;23.40;93.30;;;;;;5015980;28;20026;-24
2022/09/01 01:11:17;;;;;;;3.08;2.55;;;23.40;93.30;;;;;;5034958;28;20029;-24
2022/09/01 01:13:57;;;;;;;2.58;2.38;;;23.40;93.30;;;;;;5034345;28;20030;-24
2022/09/01 01:16:26;;;;;;;4.47;2.50;;;23.40;93.20;;;;;;5033739;28;20423;-24
2022/09/01 01:18:53;;;;;;;2.88;2.60;;;23.40;93.20;;;;;;5033512;28;20021;-24
2022/09/01 01:24:33;;;;;;;3.05;2.40;;;23.30;93.20;;;;;;5034329;28;20031;-24
2022/09/01 01:26:59;;;;;;;2.75;2.33;;;23.30;93.20;;;;;;5034487;28;20506;-24
2022/09/01 01:29:28;;;;;;;2.50;2.30;;;23.30;93.20;;;;;;5034578;28;20116;-24
2022/09/01 01:31:55;;;;;;;3.58;2.55;;;23.30;93.20;;;;;;5034491;28;20104;-24
2022/09/01 01:34:22;;;;;;;3.47;2.53;;;23.30;93.20;;;;;;5033346;28;20025;-24
2022/09/01 01:36:49;;;;;;;3.55;2.22;;;23.30;93.20;;;;;;5033440;28;20472;-24
2022/09/01 01:39:19;;;;;;;4.60;2.53;;;23.30;93.20;;;;;;5033546;28;20020;-24
2022/09/01 01:41:47;;;;;;;2.70;2.40;;;23.30;93.20;;;;;;5033300;28;20486;-24
2022/09/01 01:44:15;;;;;;;2.70;2.22;;;23.30;93.20;;;;;;5032557;28;20056;-24
2022/09/01 01:46:44;;;;;;;2.70;2.50;;;23.30;93.20;;;;;;5033158;28;20368;-24
2022/09/01 01:49:13;;;;;;;3.45;2.70;;;23.30;93.10;;;;;;5034252;28;20112;-24
2022/09/01 01:51:39;;;;;;;4.20;2.95;;;23.30;93.10;;;;;;5034050;28;20059;-24
2022/09/01 01:54:06;;;;;;;3.80;2.50;;;23.30;93.10;;;;;;5033777;28;20040;-24
2022/09/01 01:56:36;;;;;;;3.03;2.70;;;23.30;93.10;;;;;;5016297;28;20021;-24
2022/09/01 01:59:02;;;;;;;2.92;2.58;;;23.30;93.20;;;;;;5032593;28;20421;-24
2022/09/01 02:01:30;;;;;;;3.53;2.92;;;23.20;93.10;;;;;;5033063;28;20041;-24
2022/09/01 02:03:57;;;;;;;3.28;2.70;;;23.20;93.10;;;;;;5032780;28;20026;-24
2022/09/01 02:06:24;;;;;;;2.92;2.67;;;23.20;93.10;;;;;;5033513;28;20029;-24
2022/09/01 02:08:51;;;;;;;4.22;2.47;;;23.20;93.10;;;;;;5033183;28;20100;-24
2022/09/01 02:11:18;;;;;;;3.42;2.60;;;23.30;93.20;;;;;;5033316;28;20037;-24
2022/09/01 02:13:45;;;;;;;3.22;2.92;;;23.20;93.10;;;;;;5032691;28;20584;-24
2022/09/01 02:16:13;;;;;;;4.05;3.00;;;23.20;93.10;;;;;;5033559;28;20434;-24
2022/09/01 02:18:46;;;;;;;5.80;2.97;;;23.20;93.10;;;;;;5032490;28;20446;-24
2022/09/01 02:21:18;;;;;;;4.00;2.55;;;23.20;93.10;;;;;;5032540;28;20071;-24
2022/09/01 02:23:46;;;;;;;3.17;2.70;;;23.20;93.10;;;;;;5032471;28;20025;-24
2022/09/01 02:26:12;;;;;;;8.15;3.20;;;23.20;93.10;;;;;;5032783;28;20105;-24
2022/09/01 02:28:41;;;;;;;3.88;3.05;;;23.20;93.20;;;;;;5032237;28;20053;-24
2022/09/01 02:31:08;;;;;;;3.58;3.08;;;23.20;93.20;;;;;;5032867;28;20017;-24
2022/09/01 02:33:37;;;;;;;3.70;3.28;;;23.20;93.20;;;;;;5032343;28;20034;-24
2022/09/01 02:36:07;;;;;;;7.07;3.00;;;23.20;93.20;;;;;;5032622;28;20397;-24
2022/09/01 02:38:33;;;;;;;4.90;3.50;;;23.20;93.20;;;;;;5032061;28;20097;-24
2022/09/01 02:41:01;;;;;;;5.13;3.10;;;23.20;93.20;;;;;;5032343;28;20191;-24
2022/09/01 02:43:27;;;;;;;5.63;3.15;;;23.20;93.20;;;;;;5032110;28;20013;-24
2022/09/01 02:45:58;;;;;;;3.78;3.05;;;23.20;93.20;;;;;;5014630;28;20029;-24
2022/09/01 02:48:36;;;;;;;4.45;3.10;;;23.20;93.30;;;;;;5032518;28;20033;-24
2022/09/01 02:51:08;;;;;;;5.40;3.00;;;23.20;93.20;;;;;;5031902;28;20084;-24
2022/09/01 02:53:35;;;;;;;3.45;3.13;;;23.20;93.30;;;;;;5032129;28;20061;-24
2022/09/01 02:56:03;;;;;;;3.47;3.17;;;23.20;93.30;;;;;;5031592;28;20033;-24
2022/09/01 02:58:33;;;;;;;4.25;2.90;;;23.10;93.20;;;;;;5031878;28;20467;-24
2022/09/01 03:00:59;;;;;;;3.20;2.67;;;23.20;93.30;;;;;;5032524;28;20025;-24
2022/09/01 03:03:25;;;;;;;2.95;2.70;;;23.10;93.30;;;;;;5032353;28;20029;-24
2022/09/01 03:05:55;;;;;;;4.22;3.08;;;23.10;93.30;;;;;;5031922;28;20036;-24
2022/09/01 03:08:23;;;;;;;3.67;3.22;;;23.10;93.40;;;;;;5032025;28;20021;-24
2022/09/01 03:10:50;;;;;;;3.35;2.88;;;23.10;93.30;;;;;;5014343;28;20169;-24
2022/09/01 03:13:22;;;;;;;5.53;3.50;;;23.10;93.30;;;;;;5031812;28;20025;-24
2022/09/01 03:15:49;;;;;;;4.03;2.80;;;23.10;93.30;;;;;;5031814;28;20033;-24
2022/09/01 03:18:15;;;;;;;3.38;3.08;;;23.10;93.30;;;;;;5031797;28;20431;-24
2022/09/01 03:20:43;;;;;;;3.80;2.97;;;23.10;93.30;;;;;;5031832;28;20022;-24
2022/09/01 03:23:13;;;;;;;3.25;2.92;;;23.10;93.40;;;;;;5032345;28;20021;-24
2022/09/01 03:25:40;;;;;;;3.30;3.00;;;23.10;93.40;;;;;;5031753;28;20026;-24
2022/09/01 03:28:05;;;;;;;3.30;3.00;;;23.00;93.30;;;;;;5014222;28;20030;-24
2022/09/01 03:30:33;;;;;;;3.70;3.00;;;23.00;93.30;;;;;;5031562;28;20043;-24
2022/09/01 03:33:01;;;;;;;3.33;3.00;;;23.00;93.30;;;;;;5031646;28;20397;-24
2022/09/01 03:35:29;;;;;;;4.18;2.78;;;23.00;93.30;;;;;;5031551;28;20463;-24
2022/09/01 03:37:58;;;;;;;4.53;3.40;;;23.00;93.30;;;;;;5031707;28;20017;-24
2022/09/01 03:40:31;;;;;;;3.88;2.83;;;23.00;93.30;;;;;;5031826;28;20026;-24
2022/09/01 03:43:04;;;;;;;3.17;2.80;;;23.00;93.30;;;;;;5032092;28;20030;-24
2022/09/01 03:45:37;;;;;;;3.28;2.80;;;23.00;93.30;;;;;;5031442;28;20033;-24
2022/09/01 03:48:08;;;;;;;3.35;3.03;;;23.00;93.30;;;;;;5031609;28;20022;-24
2022/09/01 03:50:43;;;;;;;3.05;2.70;;;23.00;93.30;;;;;;5031348;28;20486;-24
2022/09/01 03:53:10;;;;;;;3.45;3.08;;;23.00;93.30;;;;;;5031843;28;20038;-24
2022/09/01 03:55:37;;;;;;;5.07;3.22;;;23.00;93.30;;;;;;5032378;28;20108;-24
2022/09/01 03:58:05;;;;;;;3.60;3.03;;;23.00;93.30;;;;;;5031995;28;20071;-24
2022/09/01 04:00:42;;;;;;;3.67;3.20;;;23.00;93.50;;;;;;5031757;28;20052;-24
2022/09/01 04:03:11;;;;;;;3.00;2.72;;;23.00;93.30;;;;;;5032149;28;20029;-24
2022/09/01 04:05:39;;;;;;;3.45;3.15;;;23.00;93.30;;;;;;5031337;28;20075;-24
2022/09/01 04:08:10;;;;;;;3.45;3.10;;;22.90;93.30;;;;;;5034784;28;20029;-24
2022/09/01 04:10:43;;;;;;;3.25;2.95;;;22.90;93.30;;;;;;5035175;28;20025;-24
2022/09/01 04:13:10;;;;;;;3.35;3.05;;;22.90;93.30;;;;;;5035258;28;20022;-24
2022/09/01 04:15:36;;;;;;;4.30;3.10;;;22.90;93.30;;;;;;5034789;28;20022;-24
2022/09/01 04:18:09;;;;;;;3.95;3.35;;;22.90;93.30;;;;;;5034850;28;20449;-24
2022/09/01 04:20:47;;;;;;;3.47;3.17;;;22.90;93.30;;;;;;5034623;28;20079;-24
2022/09/01 04:23:28;;;;;;;4.55;2.83;;;22.90;93.30;;;;;;5034827;28;20049;-24
2022/09/01 04:26:10;;;;;;;3.97;3.20;;;22.90;93.30;;;;;;5034702;28;20025;-24
2022/09/01 04:28:48;;;;;;;3.28;2.97;;;22.90;93.30;;;;;;5034671;28;20026;-24
2022/09/01 04:31:19;;;;;;;2.85;2.65;;;22.90;93.30;;;;;;5034552;28;20026;-24
2022/09/01 04:33:48;;;;;;;3.83;3.20;;;22.90;93.40;;;;;;5034910;28;20045;-24
2022/09/01 04:36:21;;;;;;;2.97;2.65;;;22.80;93.70;;;;;;5034779;28;20022;-24
2022/09/01 04:38:53;;;;;;;3.40;2.83;;;22.80;93.30;;;;;;5034347;28;20022;-24
2022/09/01 04:41:24;;;;;;;3.33;3.03;;;22.80;93.30;;;;;;5034406;28;20045;-24
2022/09/01 04:43:51;;;;;;;3.83;3.13;;;22.80;93.40;;;;;;5034254;28;20136;-24
2022/09/01 04:46:18;;;;;;;3.42;3.13;;;22.80;93.40;;;;;;5034439;28;20029;-24
2022/09/01 04:48:44;;;;;;;3.20;2.97;;;22.80;93.40;;;;;;5034103;28;20017;-24
2022/09/01 04:51:11;;;;;;;3.08;2.78;;;22.80;93.40;;;;;;5034196;28;20025;-23
2022/09/01 04:53:47;;;;;;;3.45;2.90;;;22.80;93.40;;;;;;5034132;28;20482;-24
2022/09/01 04:56:18;;;;;;;3.33;3.00;;;22.80;93.40;;;;;;5034002;28;20030;-24
2022/09/01 04:58:47;;;;;;;3.20;2.83;;;22.80;93.40;;;;;;5034192;28;20025;-24
2022/09/01 05:01:19;;;;;;;3.03;2.72;;;22.80;93.40;;;;;;5034074;28;20026;-24
2022/09/01 05:03:47;;;;;;;2.67;2.47;;;22.80;93.40;;;;;;5034252;28;20018;-24
2022/09/01 05:06:18;;;;;;;2.65;2.45;;;22.80;93.40;;;;;;5033987;28;20385;-24
2022/09/01 05:08:45;;;;;;;4.53;2.97;;;22.80;93.40;;;;;;5033922;28;20021;-24
2022/09/01 05:11:15;;;;;;;2.88;2.58;;;22.80;93.40;;;;;;5016134;28;20120;-24
2022/09/01 05:13:42;;;;;;;2.80;2.50;;;22.80;93.40;;;;;;5034368;28;20418;-24
2022/09/01 05:16:13;;;;;;;2.70;2.45;;;22.80;93.40;;;;;;5016153;28;20029;-24
2022/09/01 05:18:41;;;;;;;2.40;2.20;;;22.70;93.40;;;;;;5032950;28;20386;-24
2022/09/01 05:21:09;;;;;;;2.60;2.40;;;22.70;93.40;;;;;;5034049;28;20033;-24
2022/09/01 05:23:37;;;;;;;2.88;2.20;;;22.70;93.40;;;;;;5034349;28;20029;-24
2022/09/01 05:26:05;;;;;;;2.58;2.38;;;22.70;93.40;;;;;;5034184;28;20033;-24
2022/09/01 05:28:30;;;;;;;3.35;2.72;;;22.70;93.40;;;;;;5033724;28;20028;-24
2022/09/01 05:31:00;;;;;;;2.90;2.38;;;22.70;93.40;;;;;;5033530;28;20029;-23
2022/09/01 05:33:26;;;;;;;2.90;2.20;;;22.70;93.40;;;;;;5033517;28;20107;-24
2022/09/01 05:35:58;;;;;;;3.00;2.70;;;22.70;93.40;;;;;;5033261;28;20057;-24
2022/09/01 05:38:24;;;;;;;2.70;2.50;;;22.70;93.40;;;;;;5033293;28;20055;-24
2022/09/01 05:41:00;;;;;;;2.65;2.42;;;22.70;93.40;;;;;;5033164;28;20057;-24
2022/09/01 05:43:27;;;;;;;2.60;2.40;;;22.70;93.40;;;;;;5033260;28;20029;-24
2022/09/01 05:45:54;;;;;;;2.47;2.28;;;22.70;93.40;;;;;;5072296;22;20122;-27
2022/09/01 05:48:22;;;;;;;2.90;2.60;;;22.60;93.40;;;;;;5052938;28;20388;-27
2022/09/01 05:50:49;;;;;;;2.83;2.60;;;22.60;93.40;;;;;;5052916;28;20489;-27
2022/09/01 05:53:16;;;;;;;2.63;2.25;;;22.60;93.40;;;;;;5053059;28;20025;-28
2022/09/01 05:55:47;;;;;;;2.53;2.10;;;22.60;93.40;;;;;;5052891;28;20037;-27
2022/09/01 05:58:15;;;;;;;2.60;2.25;;;22.60;93.40;;;;;;5052914;28;20021;-26
2022/09/01 06:00:42;;;;;;;2.50;2.30;;;22.60;93.40;;;;;;5052537;28;20021;-28
2022/09/01 06:03:10;;;;;;;2.78;2.58;;;22.60;93.40;;;;;;5052821;28;20112;-27
2022/09/01 06:05:37;;;;;;;2.25;2.05;;;22.60;93.40;;;;;;5053041;28;20413;-27
2022/09/01 06:08:04;;;;;;;2.40;2.20;;;22.60;93.40;;;;;;5052773;28;20033;-27
2022/09/01 06:10:32;;;;;;;2.20;2.00;;;22.60;93.40;;;;;;5052646;28;20056;-26
2022/09/01 06:13:01;;;;;;;2.53;2.30;;;22.60;93.40;;;;;;5052713;28;20048;-28
2022/09/01 06:15:31;;;;;;;2.25;2.05;;;22.60;93.40;;;;;;5052312;28;20399;-27
2022/09/01 06:17:57;;;;;;;2.45;2.25;;;22.60;93.40;;;;;;5052601;28;20017;-28
2022/09/01 06:20:23;;;;;;;2.60;2.20;;;22.60;93.40;;;;;;5052416;28;20385;-28
2022/09/01 06:22:52;;;;;;;2.50;2.30;;;22.60;93.40;;;;;;5052769;28;20025;-26
2022/09/01 06:25:18;;;;;;;2.88;2.38;;;22.60;93.40;;;;;;5034434;28;20057;-26
2022/09/01 06:27:46;;;;;;;2.30;2.10;;;22.60;93.40;;;;;;5052346;28;20111;-27
2022/09/01 06:30:19;;;;;;;3.00;2.20;;;22.60;93.40;;;;;;5052091;28;20021;-26
2022/09/01 06:32:45;;;;;;;2.22;2.03;;;22.60;93.40;;;;;;5052534;28;20102;-27
2022/09/01 06:35:14;;;;;;;2.20;2.00;;;22.60;93.40;;;;;;5052258;28;20390;-27
2022/09/01 06:37:42;;;;;;;2.22;2.03;;;22.60;93.40;;;;;;5052217;28;20028;-25
2022/09/01 06:40:15;;;;;;;2.20;2.00;;;22.60;93.40;;;;;;5052018;28;20114;-26
2022/09/01 06:42:43;;;;;;;2.22;2.00;;;22.60;93.40;;;;;;5052197;28;20025;-26
2022/09/01 06:45:10;;;;;;;2.08;1.80;;;22.60;93.40;;;;;;5052054;28;20041;-26
2022/09/01 06:47:36;;;;;;;2.17;2.00;;;22.60;93.40;;;;;;5052134;28;20037;-26
2022/09/01 06:50:03;;;;;;;2.35;2.03;;;22.60;93.40;;;;;;5051925;28;20035;-27
2022/09/01 06:52:28;;;;;;;2.83;2.20;;;22.60;93.40;;;;;;5052063;28;20464;-26
2022/09/01 06:54:54;;;;;;;2.30;2.10;;;22.60;93.40;;;;;;5051886;28;20021;-26
2022/09/01 06:57:25;;;;;;;2.97;2.13;;;22.60;93.40;;;;;;5052138;28;20029;-25
2022/09/01 06:59:52;;;;;;;1.92;1.80;;;22.60;93.40;;;;;;5051990;28;20040;-27
2022/09/01 07:02:18;;;;;;;2.00;1.80;;;22.60;93.40;;;;;;5051895;28;20025;-26
2022/09/01 07:04:44;;;;;;;1.88;1.77;;;22.60;93.40;;;;;;5051947;28;20021;-26
2022/09/01 07:07:11;;;;;;;2.10;1.90;;;22.60;93.40;;;;;;5051897;28;20047;-26
2022/09/01 07:09:38;;;;;;;2.30;2.03;;;22.60;93.40;;;;;;5051688;28;20086;-26
2022/09/01 07:12:05;;;;;;;2.28;2.08;;;22.60;93.30;;;;;;5051856;28;20478;-26
2022/09/01 07:14:31;;;;;;;2.20;1.73;;;22.70;93.40;;;;;;5051704;28;20044;-25
2022/09/01 07:16:57;;;;;;;1.90;1.55;;;22.70;93.30;;;;;;5051922;28;20047;-25
2022/09/01 07:19:24;;;;;;;3.20;2.00;;;22.70;93.30;;;;;;5051748;28;20151;-27
2022/09/01 07:21:51;;;;;;;3.30;1.73;;;22.70;93.30;;;;;;5051598;28;20021;-26
2022/09/01 07:24:19;;;;;;;1.77;1.65;;;22.70;93.30;;;;;;5051621;28;20104;-26
2022/09/01 07:26:49;;;;;;;1.80;1.70;;;22.70;93.30;;;;;;5051773;28;20021;-26
2022/09/01 07:29:20;;;;;;;1.58;1.48;;;22.70;93.30;;;;;;5051656;28;20025;-27
2022/09/01 07:31:46;;;;;;;3.05;1.80;;;22.80;93.40;;;;;;5051731;28;20381;-25
2022/09/01 07:34:13;;;;;;;2.08;1.80;;;22.80;93.40;;;;;;5051510;28;20025;-26
2022/09/01 07:36:43;;;;;;;2.78;1.90;;;22.80;93.40;;;;;;5051439;28;20025;-26
2022/09/01 07:39:10;;;;;;;2.00;1.80;;;22.80;93.30;;;;;;5033911;28;20035;-33
2022/09/01 07:41:37;;;;;;;2.70;2.17;;;22.80;93.30;;;;;;5052934;28;20025;-26
2022/09/01 07:44:07;;;;;;;3.35;1.75;;;22.80;93.30;;;;;;5055415;28;20035;-26
2022/09/01 07:46:32;;;;;;;1.58;1.48;;;22.80;93.30;;;;;;5055571;28;20047;-27
2022/09/01 07:49:00;;;;;;;2.10;1.88;;;22.90;93.30;;;;;;5055134;28;20028;-27
2022/09/01 07:51:27;;;;;;;2.35;1.67;;;22.80;93.30;;;;;;5055292;28;20391;-26
2022/09/01 07:53:53;;;;;;;6.47;5.80;;;22.80;93.30;;;;;;5055141;28;20067;-26
2022/09/01 07:56:21;;;;;;;10.93;7.13;;;22.80;93.20;;;;;;5055342;28;20108;-25
2022/09/01 07:58:49;;;;;;;9.02;5.47;;;22.50;92.80;;;;;;5055106;28;20013;-27
2022/09/01 08:01:21;;;;;;;11.00;6.25;;;22.30;93.20;;;;;;5055175;28;20535;-26
2022/09/01 08:03:50;;;;;;;7.80;4.60;;;22.30;93.40;;;;;;5055041;28;20394;-26
2022/09/01 08:06:18;;;;;;;5.68;4.38;;;22.40;93.40;;;;;;5055352;28;20032;-27
2022/09/01 08:08:47;;;;;;;6.32;3.70;;;22.50;93.30;;;;;;5054979;28;20018;-25
2022/09/01 08:11:23;;;;;;;4.80;3.67;;;22.60;93.20;;;;;;5055171;28;20436;-26
2022/09/01 08:13:50;;;;;;;5.65;3.80;;;22.60;93.20;;;;;;5054951;28;20078;-26
2022/09/01 08:16:16;;;;;;;6.38;3.50;;;22.60;93.10;;;;;;5054794;28;20032;-26
2022/09/01 08:18:43;;;;;;;4.93;3.05;;;22.70;93.10;;;;;;5054805;28;20394;-27
2022/09/01 08:21:11;;;;;;;7.70;3.20;;;22.70;93.20;;;;;;5055089;28;20028;-26
2022/09/01 08:23:37;;;;;;;8.77;5.60;;;22.60;93.10;;;;;;5054707;28;20071;-26
2022/09/01 08:26:12;;;;;;;12.70;4.90;;;22.50;92.70;;;;;;5054683;28;20078;-26
2022/09/01 08:28:39;;;;;;;5.75;4.05;;;22.30;93.10;;;;;;5054433;28;20079;-26
2022/09/01 08:31:09;;;;;;;6.13;3.90;;;22.30;93.30;;;;;;5054782;28;20033;-28
2022/09/01 08:33:36;;;;;;;4.45;3.30;;;22.40;93.30;;;;;;5054627;28;20024;-26
2022/09/01 08:36:03;;;;;;;5.00;3.40;;;22.40;93.20;;;;;;5054410;28;20111;-27
2022/09/01 08:38:29;;;;;;;3.97;3.10;;;22.50;93.10;;;;;;5054424;28;20060;-25
2022/09/01 08:40:57;;;;;;;3.65;2.88;;;22.60;93.10;;;;;;5054328;28;20025;-26
2022/09/01 08:43:31;;;;;;;4.28;2.88;;;22.60;93.00;;;;;;5054364;28;20033;-27
2022/09/01 08:46:20;;;;;;;3.67;2.60;;;22.60;93.00;;;;;;5054284;28;20028;-25
2022/09/01 08:48:51;;;;;;;6.70;2.47;;;22.60;93.00;;;;;;5054146;28;20029;-26
2022/09/01 08:51:19;;;;;;;3.78;2.70;;;22.60;93.00;;;;;;5054190;28;20029;-26
2022/09/01 08:54:00;;;;;;;3.85;2.50;;;22.60;93.00;;;;;;5052786;28;20028;-27
2022/09/01 08:56:26;;;;;;;3.13;2.28;;;22.60;93.00;;;;;;5054203;28;20378;-26
2022/09/01 08:58:52;;;;;;;6.35;2.80;;;22.60;93.00;;;;;;5054045;28;20017;-25
2022/09/01 09:01:35;;;;;;;4.35;2.50;;;22.60;93.00;;;;;;5054038;28;20432;-26
2022/09/01 09:04:36;;;;;;;3.15;2.30;;;22.60;93.00;;;;;;5035891;28;20028;-25
2022/09/01 09:07:16;;;;;;;2.83;2.00;;;22.70;93.00;;;;;;5054126;28;20370;-25
2022/09/01 09:10:02;;;;;;;4.38;2.47;;;22.70;93.00;;;;;;5053760;28;20031;-25
2022/09/01 09:13:01;;;;;;;2.85;2.30;;;22.70;93.00;;;;;;5053148;28;20111;-26
2022/09/01 09:15:30;;;;;;;3.58;2.28;;;22.70;93.00;;;;;;5053559;28;20099;-26
2022/09/01 09:18:08;;;;;;;4.20;3.10;;;22.70;93.10;;;;;;5053576;28;20498;-26
2022/09/01 09:20:34;;;;;;;6.05;3.47;;;22.60;91.90;;;;;;5053381;28;20029;-26
2022/09/01 09:23:19;;;;;;;4.03;2.92;;;22.30;91.80;;;;;;5053488;28;20538;-26
2022/09/01 09:25:45;;;;;;;5.82;2.75;;;22.20;92.30;;;;;;5053521;28;20041;-25
2022/09/01 09:28:12;;;;;;;2.95;2.53;;;22.30;92.40;;;;;;5053548;28;20040;-26
2022/09/01 09:30:37;;;;;;;2.63;2.15;;;22.40;92.40;;;;;;5053328;28;20066;-26
2022/09/01 09:33:09;;;;;;;2.92;2.40;;;22.40;92.30;;;;;;5054009;28;20033;-25
2022/09/01 09:35:42;;;;;;;3.58;2.05;;;22.50;92.20;;;;;;5053517;28;20032;-26
2022/09/01 09:38:17;;;;;;;4.85;2.17;;;22.60;92.20;;;;;;5053180;28;20028;-25
2022/09/01 09:41:10;;;;;;;3.00;2.30;;;22.60;92.20;;;;;;5053125;28;20017;-26
2022/09/01 09:44:01;;;;;;;3.88;2.30;;;22.60;92.20;;;;;;5053091;28;20021;-25
2022/09/01 09:46:35;;;;;;;5.70;2.30;;;22.60;92.20;;;;;;5035475;28;20090;-26
2022/09/01 09:49:14;;;;;;;4.70;2.45;;;22.60;92.30;;;;;;5053240;28;20386;-25
2022/09/01 09:51:43;;;;;;;3.17;2.10;;;22.60;92.30;;;;;;5052968;28;20021;-26
2022/09/01 09:54:20;;;;;;;3.15;2.20;;;22.60;92.40;;;;;;5052702;28;20099;-25
2022/09/01 09:56:48;;;;;;;4.38;2.00;;;22.60;92.40;;;;;;5053015;28;20033;-26
2022/09/01 09:59:26;;;;;;;2.65;2.03;;;22.60;92.50;;;;;;5052801;28;20429;-25
2022/09/01 10:01:58;;;;;;;3.70;2.45;;;22.60;92.50;;;;;;5052832;28;20037;-25
2022/09/01 10:04:36;;;;;;;2.97;2.40;;;22.60;92.50;;;;;;5052269;28;20034;-26
2022/09/01 10:07:26;;;;;;;3.63;2.33;;;22.60;92.50;;;;;;5052929;28;20021;-26
2022/09/01 10:09:54;;;;;;;4.93;2.15;;;22.60;92.60;;;;;;5052617;28;20021;-26
2022/09/01 10:12:22;;;;;;;2.67;2.17;;;22.60;92.50;;;;;;5052598;28;20025;-25
2022/09/01 10:14:53;;;;;;;2.80;2.22;;;22.60;92.50;;;;;;5052417;28;20031;-26
2022/09/01 10:17:37;;;;;;;2.42;2.17;;;22.60;92.50;;;;;;5052556;28;20025;-26
2022/09/01 10:20:21;;;;;;;2.80;2.08;;;22.70;92.60;;;;;;5052449;28;20020;-25
2022/09/01 10:22:48;;;;;;;3.13;2.35;;;22.70;92.60;;;;;;5052507;28;20033;-25
2022/09/01 10:25:20;;;;;;;3.08;2.10;;;22.60;92.60;;;;;;5052248;28;20037;-25
2022/09/01 10:27:54;;;;;;;2.63;2.00;;;22.60;92.60;;;;;;5052382;28;20025;-26
2022/09/01 10:30:21;;;;;;;2.67;2.20;;;22.60;92.60;;;;;;5052182;28;20037;-25
2022/09/01 10:32:53;;;;;;;2.80;2.30;;;22.60;92.60;;;;;;5052306;28;20064;-25
2022/09/01 10:35:25;;;;;;;3.08;2.10;;;22.60;92.60;;;;;;5052237;28;20032;-26
2022/09/01 10:37:53;;;;;;;3.13;1.83;;;22.70;92.60;;;;;;5052196;28;20377;-25
2022/09/01 10:40:37;;;;;;;2.60;1.90;;;22.60;92.60;;;;;;5052008;28;20029;-25
2022/09/01 10:43:28;;;;;;;2.28;1.70;;;22.70;92.60;;;;;;5052189;28;20013;-26
2022/09/01 10:45:55;;;;;;;2.10;1.90;;;22.70;92.60;;;;;;5051924;28;20036;-25
2022/09/01 10:48:20;;;;;;;1.95;1.65;;;22.70;92.60;;;;;;5033813;28;20494;-26
2022/09/01 10:51:12;;;;;;;2.20;2.00;;;22.70;92.50;;;;;;5051847;28;20059;-25
2022/09/01 10:53:43;;;;;;;2.17;1.85;;;22.80;92.50;;;;;;5051929;28;20035;-26
2022/09/01 10:56:15;;;;;;;2.58;2.03;;;22.80;92.50;;;;;;5051875;28;20134;-25
2022/09/01 10:58:49;;;;;;;2.30;1.92;;;22.90;92.50;;;;;;5051647;28;20390;-26
2022/09/01 11:01:15;;;;;;;2.33;2.08;;;22.90;92.40;;;;;;5051833;28;20023;-25
2022/09/01 11:03:54;;;;;;;2.33;1.90;;;23.00;92.40;;;;;;5051859;28;20068;-25
2022/09/01 11:06:52;;;;;;;2.83;1.98;;;23.00;92.30;;;;;;5051901;28;20036;-25
2022/09/01 11:09:23;;;;;;;2.50;1.95;;;23.00;92.30;;;;;;5051692;28;20111;-25
2022/09/01 11:12:19;;;;;;;3.50;2.17;;;23.00;92.30;;;;;;5051841;28;20021;-26
2022/09/01 11:15:01;;;;;;;3.45;2.35;;;23.10;92.30;;;;;;5051699;28;20028;-25
2022/09/01 11:17:35;;;;;;;1.90;1.67;;;23.10;92.30;;;;;;5054600;28;20025;-26
2022/09/01 11:20:09;;;;;;;2.30;1.90;;;23.00;92.30;;;;;;5055796;28;20029;-26
2022/09/01 11:22:34;;;;;;;2.28;1.80;;;23.00;92.30;;;;;;5055996;28;20044;-25
2022/09/01 11:25:31;;;;;;;2.15;1.60;;;23.00;92.30;;;;;;5055757;28;20025;-26
2022/09/01 11:28:00;;;;;;;2.10;1.67;;;23.10;92.30;;;;;;5037813;28;20167;-25
2022/09/01 11:30:37;;;;;;;2.47;1.77;;;23.00;92.30;;;;;;5055477;28;20604;-25
2022/09/01 11:33:15;;;;;;;2.88;1.98;;;23.00;92.30;;;;;;5055644;28;20025;-26
2022/09/01 11:35:44;;;;;;;2.28;1.85;;;23.00;92.30;;;;;;5055471;28;20386;-25
2022/09/01 11:38:13;;;;;;;2.20;1.70;;;23.10;92.30;;;;;;5055486;28;20025;-25
2022/09/01 11:40:39;;;;;;;2.03;1.75;;;23.10;92.30;;;;;;5055329;28;20029;-25
2022/09/01 11:43:15;;;;;;;2.17;1.90;;;23.20;92.30;;;;;;5055524;28;20029;-26
2022/09/01 11:46:09;;;;;;;2.67;1.88;;;23.10;92.20;;;;;;5022497;22;1146697;-24
2022/09/01 11:48:35;;;;;;;1.90;1.70;;;23.20;92.20;;;;;;5027680;28;20045;-24
2022/09/01 11:51:02;;;;;;;2.15;1.75;;;23.20;92.30;;;;;;5035311;28;20034;-24
2022/09/01 11:53:29;;;;;;;2.53;1.83;;;23.20;92.30;;;;;;5035368;28;20033;-24
2022/09/01 11:56:09;;;;;;;2.25;1.90;;;23.20;92.20;;;;;;5035398;28;20037;-24
2022/09/01 11:58:38;;;;;;;2.17;1.65;;;23.20;92.20;;;;;;5035274;28;20489;-24
2022/09/01 12:01:37;;;;;;;1.90;1.70;;;23.20;92.20;;;;;;5035064;28;20518;-24
2022/09/01 12:04:23;;;;;;;2.70;1.80;;;23.20;92.20;;;;;;4991975;28;20037;-24
2022/09/01 12:07:01;;;;;;;2.25;1.80;;;23.20;92.20;;;;;;5035159;28;20070;-24
2022/09/01 12:09:40;;;;;;;2.10;1.58;;;23.10;92.20;;;;;;5035392;28;20551;-24
2022/09/01 12:12:24;;;;;;;2.75;1.70;;;23.10;92.30;;;;;;5035882;28;20393;-24
2022/09/01 12:15:02;;;;;;;4.25;1.60;;;23.10;92.30;;;;;;5035192;28;20092;-23
2022/09/01 12:17:28;;;;;;;1.70;1.60;;;23.10;92.30;;;;;;5035486;28;20497;-24
2022/09/01 12:19:53;;;;;;;1.92;1.70;;;23.10;92.30;;;;;;5035054;28;20029;-24
2022/09/01 12:22:21;;;;;;;4.22;1.85;;;23.10;92.30;;;;;;5034998;28;20032;-24
2022/09/01 12:24:53;;;;;;;2.10;1.70;;;23.10;92.20;;;;;;5038290;28;20386;-24
2022/09/01 12:27:22;;;;;;;2.05;1.65;;;23.10;92.30;;;;;;5042030;28;20028;-24
2022/09/01 12:29:48;;;;;;;1.52;1.42;;;23.10;92.30;;;;;;5036878;28;20029;-24
2022/09/01 12:32:15;;;;;;;1.70;1.60;;;23.20;92.30;;;;;;5034716;28;20022;-24
2022/09/01 12:34:43;;;;;;;1.85;1.70;;;23.20;92.60;;;;;;5017576;28;20461;-24
2022/09/01 12:37:24;;;;;;;1.63;1.52;;;23.20;92.20;;;;;;5035066;28;20025;-24
2022/09/01 12:39:56;;;;;;;2.60;1.80;;;23.20;92.30;;;;;;5035067;28;20112;-24
2022/09/01 12:42:28;;;;;;;1.30;1.20;;;23.20;92.20;;;;;;5034687;28;20021;-24
2022/09/01 12:45:08;;;;;;;1.77;1.48;;;23.20;92.60;;;;;;5034315;28;20043;-24
2022/09/01 12:47:34;;;;;;;2.03;1.65;;;23.20;92.30;;;;;;5016691;28;20029;-24
2022/09/01 12:50:00;;;;;;;1.90;1.48;;;23.20;92.30;;;;;;5034395;28;20026;-24
2022/09/01 12:52:30;;;;;;;1.60;1.50;;;23.20;92.30;;;;;;5034630;28;20502;-24
2022/09/01 12:54:58;;;;;;;2.15;1.65;;;23.20;92.20;;;;;;5034156;28;20119;-24
2022/09/01 12:57:33;;;;;;;2.05;1.58;;;23.30;92.10;;;;;;5034265;28;20108;-24
2022/09/01 13:00:08;;;;;;;4.40;1.73;;;23.30;92.10;;;;;;5033778;28;20021;-24
2022/09/01 13:02:47;;;;;;;1.63;1.50;;;23.30;92.10;;;;;;5034164;28;20013;-24
2022/09/01 13:05:36;;;;;;;1.92;1.55;;;23.30;92.40;;;;;;5016334;28;20108;-24
2022/09/01 13:08:10;;;;;;;1.77;1.60;;;23.30;92.10;;;;;;5034047;28;20025;-24